NCAR-RAP Real-Time Weather Data

Output produced by METARs form (17 September 2019  16:12 UTC)
found at http://weather.rap.ucar.edu/surface/
 
KWAL 171554Z 05016KT 10SM FEW025 BKN095 24/18 A3009 RMK AO2 SLP186 T02440178
KWAL 171454Z 06018KT 10SM BKN100 23/17 A3009 RMK AO2 SLP185 60000 T02330172 51015
KWAL 171354Z 08014G22KT 10SM FEW015 SCT090 BKN110 24/16 A3007 RMK AO2 SLP180 T02390161
KWAL 171254Z AUTO 07015G19KT 10SM BKN065 OVC090 23/17 A3006 RMK AO2 RAE09 SLP176 P0000 T02280167 $
KWAL 171209Z AUTO 06013KT 10SM SCT018 BKN065 OVC080 22/19 A3005 RMK AO2 RAE09 P0000 T02170194 $
KWAL 171154Z AUTO 06015G20KT 7SM -RA SCT015 BKN026 OVC075 22/20 A3004 RMK AO2 RAB1059 SLP170 P0003 60003 70003 T02170200 10228 20211 53018 $
KWAL 171120Z AUTO 02008KT 4SM -RA BR FEW013 BKN036 OVC055 22/21 A3003 RMK AO2 RAB1059 P0002 T02170206 $
KWAL 171054Z AUTO 33009KT 10SM SCT015 BKN027 BKN047 22/20 A3003 RMK AO2 CIG 019V035 SLP166 T02220200 $
KWAL 170954Z AUTO 04005KT 10SM FEW014 FEW049 22/21 A3000 RMK AO2 SLP154 T02170206 $
KWAL 170854Z AUTO 36004KT 10SM BKN043 OVC075 21/21 A2999 RMK AO2 SLP152 T02110206 57002 $
KWAL 170754Z AUTO 33004KT 10SM FEW014 BKN033 BKN110 21/21 A2999 RMK AO2 SLP153 T02110206 $
KWAL 170654Z AUTO 35003KT 10SM BKN120 22/21 A2999 RMK AO2 SLP154 T02170206 $
KWAL 170554Z AUTO 00000KT 10SM OVC120 22/21 A3000 RMK AO2 SLP154 T02220206 10233 20217 56001 $
KWAL 170454Z AUTO 10003KT 10SM SCT120 22/21 A3000 RMK AO2 SLP155 T02220206 402720178 $
KWAL 170354Z AUTO 00000KT 10SM FEW095 OVC120 23/21 A2999 RMK AO2 SLP153 T02280206 $
KWAL 170254Z AUTO 16005KT 10SM OVC120 23/21 A3000 RMK AO2 SLP155 T02330211 53002 $
KWAL 170054Z AUTO 16005KT 10SM CLR 22/21 A3000 RMK AO2 SLP154 T02220206 $
KWAL 162354Z 16005KT 10SM CLR 23/20 A2999 RMK AO2 SLP153 T02280200 10272 20228 53004 $
KWAL 162254Z 16005KT 10SM CLR 23/19 A2999 RMK AO2 SLP153 T02330194 $
KWAL 162154Z 15006KT 10SM CLR 25/20 A2998 RMK AO2 SLP149 T02500200
KWAL 162054Z 14009KT 10SM CLR 26/18 A2998 RMK AO2 SLP149 T02610183 56020
KWAL 161954Z 14007KT 10SM CLR 26/19 A3000 RMK AO2 SLP156 T02610194
KWAL 161854Z 15008KT 10SM CLR 27/19 A3002 RMK AO2 SLP161 T02670189